Hauptseite
METAR-TAF:

METAR-TAF

Flughäfen :

Alpnach, Schweiz

Militärflugplatz Alpnach

Breite: 46-56-19N, Länge: 8-17-03E, Höhe: 440 m

Beobachtung

Neuester Wetterbericht von vor 22 Minuten, um 12:50 UTC
Wind 1 kt aus unterschiedlichen Richtungen
Temperatur 5°C
Luftfeuchtigkeit 65%
Luftdruck 1006 hPa
Sichtweite 10 km oder mehr
Leicht bewölkt in der Höhe von 6600 ft

METAR: LSMA 201250Z AUTO VRB01KT 9999NDV FEW066 05/M01 Q1006 RMK

Zeit: 14:12 (13:12 UTC)


TAF: fehlend

Wetterbeobachtungen und Prognosen von mehr als 4000 Flughäfen (METAR und TAF Bericht).

Die verfügbaren Stationen werden durch gelbe und rote Markierungen auf der Karte dargestellt.

Führen Sie die Maus auf sie, um den Namen der Station zu sehen.

Darauf klicken, um die Beobachtung von Wetterbeobachtungen und Prognosen zu sehen.

Um die Karte zu ändern : klicken Sie auf den grünen Tasten mit einem schwarzen Kreuz Zum Vergrößern, auf den grünen Button mit einem Gedankenstrich zu verkleinern, oder auf die grünen Pfeile für benachbarte Karten.


METAR-TAF: